createdAt,value
2019-06-27T00:01:16.867Z,95729.88
2019-06-27T00:03:46.183Z,95731.42
2019-06-27T00:06:15.199Z,95736.94
2019-06-27T00:08:43.999Z,95734.03
2019-06-27T00:11:15.745Z,95734.00
2019-06-27T00:13:45.299Z,95739.79
2019-06-27T00:16:14.308Z,95740.03
2019-06-27T00:18:43.896Z,95741.56
2019-06-27T00:21:12.475Z,95742.34
2019-06-27T00:23:41.166Z,95738.85
2019-06-27T00:26:10.852Z,95734.08
2019-06-27T00:28:39.567Z,95737.50
2019-06-27T00:31:08.507Z,95739.62
2019-06-27T00:33:39.195Z,95735.15
2019-06-27T00:36:08.713Z,95736.44
2019-06-27T00:38:37.697Z,95735.61
2019-06-27T00:41:06.671Z,95732.98
2019-06-27T00:43:35.577Z,95732.98
2019-06-27T00:46:05.133Z,95729.27
2019-06-27T00:48:34.799Z,95734.75
2019-06-27T00:51:03.737Z,95730.28
2019-06-27T00:53:33.357Z,95730.25
2019-06-27T00:56:02.689Z,95726.55
2019-06-27T00:58:31.636Z,95725.54
2019-06-27T01:01:00.235Z,95727.03
2019-06-27T01:03:30.590Z,95725.48
2019-06-27T01:05:59.220Z,95724.16
2019-06-27T01:08:28.170Z,95725.69
2019-06-27T01:10:57.753Z,95719.05
2019-06-27T01:13:26.771Z,95721.19
2019-06-27T01:15:55.820Z,95726.69
2019-06-27T01:18:25.514Z,95723.27
2019-06-27T01:20:56.157Z,95720.84
2019-06-27T01:23:25.781Z,95719.28
2019-06-27T01:25:55.851Z,95725.06
2019-06-27T01:28:24.725Z,95719.73
2019-06-27T01:30:53.841Z,95720.53
2019-06-27T01:33:22.853Z,95716.55
2019-06-27T01:35:51.871Z,95716.00
2019-06-27T01:38:21.371Z,95710.45
2019-06-27T01:40:50.292Z,95708.31
2019-06-27T01:43:20.255Z,95710.14
2019-06-27T01:45:51.515Z,95711.73
2019-06-27T01:48:21.364Z,95708.00
2019-06-27T01:50:50.324Z,95706.37
2019-06-27T01:53:21.559Z,95708.44
2019-06-27T01:55:51.179Z,95709.20
2019-06-27T01:58:20.230Z,95702.42
2019-06-27T02:00:50.428Z,95710.28
2019-06-27T02:03:20.803Z,95707.05
2019-06-27T02:05:49.445Z,95704.15
2019-06-27T02:08:19.017Z,95701.24
2019-06-27T02:10:49.172Z,95699.41
2019-06-27T02:13:19.392Z,95697.53
2019-06-27T02:15:48.456Z,95699.89
2019-06-27T02:18:17.110Z,95695.34
2019-06-27T02:20:47.361Z,95691.45
2019-06-27T02:23:16.631Z,95690.09
2019-06-27T02:25:45.542Z,95688.26
2019-06-27T02:28:14.499Z,95691.41
2019-06-27T02:30:45.076Z,95693.31
2019-06-27T02:33:14.740Z,95690.09
2019-06-27T02:35:44.166Z,95689.05
2019-06-27T02:38:13.950Z,95685.64
2019-06-27T02:40:42.610Z,95688.73
2019-06-27T02:43:14.049Z,95685.08
2019-06-27T02:45:43.483Z,95685.31
2019-06-27T02:48:13.013Z,95681.69
2019-06-27T02:50:42.103Z,95681.09
2019-06-27T02:53:10.952Z,95683.72
2019-06-27T02:55:39.997Z,95686.35
2019-06-27T02:58:28.926Z,95688.50
2019-06-27T03:00:39.761Z,95680.86
2019-06-27T03:03:09.601Z,95678.78
2019-06-27T03:05:40.121Z,95680.06
2019-06-27T03:08:09.152Z,95676.67
2019-06-27T03:10:38.216Z,95677.16
2019-06-27T03:13:07.835Z,95681.61
2019-06-27T03:15:37.127Z,95676.67
2019-06-27T03:18:06.180Z,95685.08
2019-06-27T03:20:37.437Z,95689.58
2019-06-27T03:23:06.953Z,95684.12
2019-06-27T03:25:38.055Z,95679.86
2019-06-27T03:28:06.699Z,95685.39
2019-06-27T03:30:35.443Z,95687.23
2019-06-27T03:33:04.141Z,95694.04
2019-06-27T03:35:32.784Z,95697.73
2019-06-27T03:38:01.661Z,95687.30
2019-06-27T03:40:30.298Z,95689.14
2019-06-27T03:42:58.981Z,95695.02
2019-06-27T03:45:27.693Z,95691.35
2019-06-27T03:47:56.331Z,95689.83
2019-06-27T03:50:25.006Z,95699.11
2019-06-27T03:52:54.431Z,95693.26
2019-06-27T03:55:23.002Z,95705.31
2019-06-27T03:57:51.629Z,95702.83
2019-06-27T04:00:23.202Z,95699.00
2019-06-27T04:02:51.827Z,95700.94
2019-06-27T04:05:20.502Z,95703.09
2019-06-27T04:07:49.139Z,95699.69
2019-06-27T04:10:18.012Z,95696.23
2019-06-27T04:12:46.771Z,95690.16
2019-06-27T04:15:15.408Z,95692.22
2019-06-27T04:17:44.053Z,95694.23
2019-06-27T04:20:12.893Z,95688.34
2019-06-27T04:22:41.530Z,95686.19
2019-06-27T04:25:11.215Z,95681.91
2019-06-27T04:27:39.946Z,95677.66
2019-06-27T04:30:09.103Z,95677.93
2019-06-27T04:32:39.277Z,95675.60
2019-06-27T04:35:08.225Z,95668.83
2019-06-27T04:37:37.684Z,95667.56
2019-06-27T04:40:06.732Z,95669.70
2019-06-27T04:42:35.388Z,95672.13
2019-06-27T04:45:05.580Z,95674.06
2019-06-27T04:47:34.203Z,95678.30
2019-06-27T04:50:02.852Z,95673.59
2019-06-27T04:52:32.853Z,95674.68
2019-06-27T04:55:03.520Z,95679.98
2019-06-27T04:57:31.799Z,95682.70
2019-06-27T05:00:00.377Z,95684.30
2019-06-27T05:02:30.662Z,95675.64
2019-06-27T05:04:59.439Z,95675.95
2019-06-27T05:07:28.088Z,95682.59
2019-06-27T05:09:56.655Z,95678.11
2019-06-27T05:12:26.887Z,95680.50
2019-06-27T05:14:55.523Z,95672.61
2019-06-27T05:17:24.161Z,95672.89
2019-06-27T05:19:52.901Z,95669.49
2019-06-27T05:22:21.471Z,95668.47
2019-06-27T05:24:50.333Z,95673.23
2019-06-27T05:27:19.075Z,95666.88
2019-06-27T05:29:47.719Z,95667.89
2019-06-27T05:32:17.121Z,95667.34
2019-06-27T05:34:45.756Z,95671.55
2019-06-27T05:37:14.394Z,95665.72
2019-06-27T05:39:42.968Z,95670.19
2019-06-27T05:42:11.584Z,95668.53
2019-06-27T05:44:41.163Z,95672.95
2019-06-27T05:47:09.797Z,95663.05
2019-06-27T05:49:38.361Z,95660.59
2019-06-27T05:52:07.394Z,95660.48
2019-06-27T05:54:35.942Z,95657.34
2019-06-27T05:57:04.594Z,95653.70
2019-06-27T05:59:33.465Z,95650.08
2019-06-27T06:02:02.177Z,95650.91
2019-06-27T06:04:30.871Z,95651.98
2019-06-27T06:06:59.516Z,95652.47
2019-06-27T06:09:28.143Z,95654.17
2019-06-27T06:11:56.823Z,95649.68
2019-06-27T06:14:25.456Z,95647.20
2019-06-27T06:16:54.019Z,95638.73
2019-06-27T06:19:22.662Z,95640.81
2019-06-27T06:21:51.306Z,95640.87
2019-06-27T06:24:20.541Z,95629.11
2019-06-27T06:26:49.181Z,95636.55
2019-06-27T06:29:17.815Z,95634.24
2019-06-27T06:31:49.207Z,95630.74
2019-06-27T06:34:16.815Z,95621.23
2019-06-27T06:36:45.446Z,95632.38
2019-06-27T06:39:14.901Z,95623.83
2019-06-27T06:41:43.529Z,95623.75
2019-06-27T06:44:12.088Z,95625.73
2019-06-27T06:46:40.785Z,95620.88
2019-06-27T06:49:09.424Z,95626.16
2019-06-27T06:51:38.058Z,95618.58
2019-06-27T06:54:08.531Z,95617.69
2019-06-27T06:56:37.162Z,95612.76
2019-06-27T06:59:05.834Z,95608.45
2019-06-27T07:01:34.457Z,95613.86
2019-06-27T07:04:03.096Z,95611.14
2019-06-27T07:06:31.787Z,95606.44
2019-06-27T07:09:00.413Z,95601.41
2019-06-27T07:11:29.053Z,95600.41
2019-06-27T07:13:57.753Z,95603.21
2019-06-27T07:16:26.438Z,95601.75
2019-06-27T07:18:55.080Z,95597.67
2019-06-27T07:21:23.652Z,95591.86
2019-06-27T07:23:52.305Z,95592.70
2019-06-27T07:26:22.405Z,95588.02
2019-06-27T07:28:51.421Z,95586.42
2019-06-27T07:31:20.082Z,95587.63
2019-06-27T07:33:49.661Z,95585.20
2019-06-27T07:36:18.305Z,95582.59
2019-06-27T07:38:47.452Z,95575.32
2019-06-27T07:41:16.161Z,95576.16
2019-06-27T07:43:44.791Z,95577.38
2019-06-27T07:46:24.442Z,95573.13
2019-06-27T07:48:44.344Z,95574.47
2019-06-27T07:51:12.978Z,95567.77
2019-06-27T07:53:41.629Z,95561.12
2019-06-27T07:56:10.265Z,95561.83
2019-06-27T07:58:39.297Z,95564.91
2019-06-27T08:01:08.037Z,95562.04
2019-06-27T08:03:36.542Z,95554.58
2019-06-27T08:06:05.378Z,95554.67
2019-06-27T08:08:33.904Z,95550.21
2019-06-27T08:11:02.537Z,95552.57
2019-06-27T08:13:31.642Z,95565.20
2019-06-27T08:16:00.265Z,95553.81
2019-06-27T08:18:28.948Z,95560.66
2019-06-27T08:20:57.587Z,95551.47
2019-06-27T08:23:40.540Z,95558.70
2019-06-27T08:25:56.710Z,95552.52
2019-06-27T08:28:25.336Z,95551.30
2019-06-27T08:30:53.897Z,95549.15
2019-06-27T08:33:22.598Z,95546.78
2019-06-27T08:35:51.230Z,95511.95
2019-06-27T08:38:19.877Z,95511.95
2019-06-27T08:40:48.421Z,95536.59
2019-06-27T08:43:16.979Z,95540.46
2019-06-27T08:45:45.658Z,95532.36
2019-06-27T08:48:14.281Z,95536.81
2019-06-27T08:50:42.832Z,95530.06
2019-06-27T08:53:16.046Z,95533.87
2019-06-27T08:55:44.686Z,95536.72
2019-06-27T08:58:13.311Z,95538.66
2019-06-27T09:00:44.931Z,95530.05
2019-06-27T09:03:12.264Z,95520.95
2019-06-27T09:05:40.907Z,95518.52
2019-06-27T09:08:09.578Z,95513.27
2019-06-27T09:10:38.205Z,95515.74
2019-06-27T09:13:06.902Z,95507.58
2019-06-27T09:15:35.560Z,95508.22
2019-06-27T09:18:04.291Z,95505.78
2019-06-27T09:20:32.937Z,95488.08
2019-06-27T09:23:01.511Z,95488.44
2019-06-27T09:25:30.874Z,95483.49
2019-06-27T09:27:59.496Z,95478.50
2019-06-27T09:30:28.184Z,95475.92
2019-06-27T09:32:57.657Z,95472.58
2019-06-27T09:35:26.332Z,95467.86
2019-06-27T09:37:55.027Z,95459.61
2019-06-27T09:40:24.006Z,95463.20
2019-06-27T09:42:54.097Z,95452.80
2019-06-27T09:45:23.223Z,95452.67
2019-06-27T09:47:52.829Z,95443.41
2019-06-27T09:50:22.362Z,95437.32
2019-06-27T09:52:50.981Z,95431.91
2019-06-27T09:55:20.566Z,95441.91
2019-06-27T09:57:49.352Z,95437.52
2019-06-27T10:00:19.685Z,95435.42
2019-06-27T10:02:48.336Z,95440.14
2019-06-27T10:05:17.211Z,95435.84
2019-06-27T10:07:45.889Z,95432.25
2019-06-27T10:10:16.160Z,95429.31
2019-06-27T10:12:44.819Z,95426.34
2019-06-27T10:15:13.968Z,95423.30
2019-06-27T10:17:42.584Z,95426.01
2019-06-27T10:20:11.299Z,95424.41
2019-06-27T10:22:39.969Z,95418.88
2019-06-27T10:25:09.665Z,95411.09
2019-06-27T10:27:38.302Z,95408.81
2019-06-27T10:30:08.240Z,95399.21
2019-06-27T10:32:36.874Z,95384.84
2019-06-27T10:35:10.172Z,95377.69
2019-06-27T10:37:38.808Z,95365.83
2019-06-27T10:40:08.439Z,95354.86
2019-06-27T10:42:37.011Z,95355.45
2019-06-27T10:45:07.611Z,95347.73
2019-06-27T10:47:36.260Z,95344.52
2019-06-27T10:50:05.982Z,95344.11
2019-06-27T10:52:34.556Z,95330.89
2019-06-27T10:55:03.950Z,95324.16
2019-06-27T10:57:32.566Z,95319.50
2019-06-27T11:00:01.202Z,95312.42
2019-06-27T11:02:29.841Z,95308.53
2019-06-27T11:04:58.480Z,95303.88
2019-06-27T11:07:27.888Z,95305.13
2019-06-27T11:09:56.449Z,95295.05
2019-06-27T11:12:25.012Z,95291.67
2019-06-27T11:14:58.986Z,95288.06
2019-06-27T11:17:24.536Z,95284.99
2019-06-27T11:19:53.121Z,95277.70
2019-06-27T11:22:21.735Z,95277.81
2019-06-27T11:24:50.349Z,95270.13
2019-06-27T11:27:19.031Z,95265.64
2019-06-27T11:29:47.635Z,95266.12
2019-06-27T11:32:16.259Z,95255.03
2019-06-27T11:34:44.864Z,95266.80
2019-06-27T11:37:13.424Z,95259.93
2019-06-27T11:39:42.057Z,95256.20
2019-06-27T11:42:12.284Z,95254.59
2019-06-27T11:44:40.915Z,95255.96
2019-06-27T11:47:10.776Z,95257.31
2019-06-27T11:49:39.455Z,95249.64
2019-06-27T11:52:08.097Z,95241.17
2019-06-27T11:54:38.974Z,95244.05
2019-06-27T11:57:07.702Z,95243.30
2019-06-27T11:59:36.353Z,95239.94
2019-06-27T12:02:05.151Z,95232.89
2019-06-27T12:04:33.760Z,95229.66
2019-06-27T12:07:02.952Z,95223.63
2019-06-27T12:09:31.689Z,95222.52
2019-06-27T12:12:00.312Z,95217.30
2019-06-27T12:14:29.480Z,95218.41
2019-06-27T12:16:58.200Z,95212.03
2019-06-27T12:19:26.838Z,95213.60
2019-06-27T12:21:55.484Z,95210.47
2019-06-27T12:24:24.122Z,95207.58
2019-06-27T12:26:54.460Z,95203.52
2019-06-27T12:29:23.093Z,95201.52
2019-06-27T12:31:51.947Z,95199.95
2019-06-27T12:34:21.194Z,95203.19
2019-06-27T12:36:49.820Z,95197.28
2019-06-27T12:39:18.465Z,95199.95
2019-06-27T12:41:47.174Z,95196.88
2019-06-27T12:44:15.832Z,95188.82
2019-06-27T12:46:44.510Z,95186.59
2019-06-27T12:49:13.078Z,95178.77
2019-06-27T12:51:41.707Z,95174.64
2019-06-27T12:54:10.494Z,95176.75
2019-06-27T12:56:39.149Z,95172.09
2019-06-27T12:59:07.789Z,95171.08
2019-06-27T13:01:37.302Z,95162.05
2019-06-27T13:04:19.104Z,95164.95
2019-06-27T13:06:36.312Z,95166.52
2019-06-27T13:09:05.987Z,95158.56
2019-06-27T13:11:34.635Z,95154.34
2019-06-27T13:14:03.204Z,95161.15
2019-06-27T13:16:32.652Z,95150.21
2019-06-27T13:19:01.270Z,95142.41
2019-06-27T13:21:29.908Z,95147.64
2019-06-27T13:23:58.541Z,95131.02
2019-06-27T13:26:27.171Z,95128.44
2019-06-27T13:28:55.853Z,95119.62
2019-06-27T13:31:24.492Z,95122.30
2019-06-27T13:33:53.130Z,95116.19
2019-06-27T13:36:21.775Z,95110.70
2019-06-27T13:38:50.398Z,95115.63
2019-06-27T13:41:19.041Z,95106.47
2019-06-27T13:43:49.315Z,95112.38
2019-06-27T13:46:18.180Z,95104.23
2019-06-27T13:48:46.807Z,95098.88
2019-06-27T13:51:15.428Z,95099.87
2019-06-27T13:53:44.114Z,95096.21
2019-06-27T13:56:13.579Z,95091.97
2019-06-27T13:58:42.281Z,95086.16
2019-06-27T14:01:11.161Z,95082.05
2019-06-27T14:03:49.319Z,95086.94
2019-06-27T14:06:10.194Z,95083.14
2019-06-27T14:08:39.691Z,95071.45
2019-06-27T14:11:08.328Z,95067.77
2019-06-27T14:13:36.980Z,95063.08
2019-06-27T14:16:07.278Z,95065.31
2019-06-27T14:18:35.896Z,95057.16
2019-06-27T14:21:04.540Z,95056.73
2019-06-27T14:23:33.106Z,95048.02
2019-06-27T14:26:01.749Z,95044.00
2019-06-27T14:28:30.433Z,95044.66
2019-06-27T14:30:59.082Z,95039.10
2019-06-27T14:33:27.712Z,95034.86
2019-06-27T14:35:57.985Z,95041.36
2019-06-27T14:38:27.650Z,95028.73
2019-06-27T14:40:58.933Z,95027.61
2019-06-27T14:43:27.644Z,95017.27
2019-06-27T14:45:56.271Z,95016.38
2019-06-27T14:48:24.945Z,95016.59
2019-06-27T14:50:53.504Z,95011.69
2019-06-27T14:53:22.159Z,95010.27
2019-06-27T14:55:51.577Z,95013.05
2019-06-27T14:58:20.227Z,95006.13
2019-06-27T15:00:48.918Z,95000.78
2019-06-27T15:03:17.574Z,95001.66
2019-06-27T15:05:46.274Z,94989.84
2019-06-27T15:08:16.626Z,94990.62
2019-06-27T15:10:45.261Z,94993.22
2019-06-27T15:13:13.920Z,94991.09
2019-06-27T15:15:44.596Z,94986.08
2019-06-27T15:18:16.570Z,94987.41
2019-06-27T15:20:44.012Z,94982.95
2019-06-27T15:23:12.651Z,94983.80
2019-06-27T15:25:42.070Z,94976.14
2019-06-27T15:28:10.745Z,94982.93
2019-06-27T15:30:39.458Z,94977.37
2019-06-27T15:33:09.171Z,94973.58
2019-06-27T15:35:51.662Z,94971.01
2019-06-27T15:38:09.747Z,94971.56
2019-06-27T15:40:38.384Z,94970.00
2019-06-27T15:43:07.040Z,94968.00
2019-06-27T15:45:35.673Z,94964.77
2019-06-27T15:48:04.432Z,94968.90
2019-06-27T15:50:33.005Z,94966.45
2019-06-27T15:53:01.707Z,94963.22
2019-06-27T15:55:31.285Z,94959.62
2019-06-27T15:57:59.841Z,94962.44
2019-06-27T16:00:28.482Z,94952.06
2019-06-27T16:02:57.117Z,94949.30
2019-06-27T16:05:25.859Z,94949.17
2019-06-27T16:07:54.604Z,94950.52
2019-06-27T16:10:23.938Z,94951.06
2019-06-27T16:12:52.571Z,94959.97
2019-06-27T16:15:21.241Z,94959.59
2019-06-27T16:17:49.870Z,94961.20
2019-06-27T16:20:20.487Z,94954.84
2019-06-27T16:22:49.120Z,94955.53
2019-06-27T16:25:18.050Z,94946.95
2019-06-27T16:27:46.673Z,94951.64
2019-06-27T16:30:15.854Z,94943.95
2019-06-27T16:32:44.499Z,94944.38
2019-06-27T16:35:13.216Z,94944.84
2019-06-27T16:37:42.466Z,94944.72
2019-06-27T16:40:11.601Z,94948.27
2019-06-27T16:42:40.248Z,94945.50
2019-06-27T16:45:10.602Z,94955.73
2019-06-27T16:47:39.236Z,94954.07
2019-06-27T16:50:10.688Z,94954.39
2019-06-27T16:52:39.343Z,94956.97
2019-06-27T16:55:08.875Z,94953.97
2019-06-27T16:57:38.911Z,94953.41
2019-06-27T17:00:09.015Z,94955.53
2019-06-27T17:02:37.707Z,94953.28
2019-06-27T17:05:06.751Z,94951.95
2019-06-27T17:07:35.396Z,94942.22
2019-06-27T17:10:05.875Z,94957.05
2019-06-27T17:12:34.510Z,94957.50
2019-06-27T17:15:03.548Z,94958.94
2019-06-27T17:17:32.235Z,94962.38
2019-06-27T17:20:00.876Z,94963.13
2019-06-27T17:22:29.510Z,94961.47
2019-06-27T17:24:58.269Z,94962.22
2019-06-27T17:27:26.999Z,94961.42
2019-06-27T17:29:55.795Z,94957.64
2019-06-27T17:32:24.378Z,94962.65
2019-06-27T17:34:53.156Z,94951.33
2019-06-27T17:37:22.313Z,94957.99
2019-06-27T17:39:50.986Z,94958.39
2019-06-27T17:42:20.268Z,94958.61
2019-06-27T17:44:50.403Z,94961.20
2019-06-27T17:47:19.028Z,94961.89
2019-06-27T17:49:49.157Z,94962.13
2019-06-27T17:52:18.083Z,94961.05
2019-06-27T17:54:46.720Z,94967.50
2019-06-27T17:57:15.419Z,94968.64
2019-06-27T17:59:43.996Z,94960.62
2019-06-27T18:02:12.614Z,94962.73
2019-06-27T18:04:41.272Z,94967.81
2019-06-27T18:07:14.784Z,94971.28
2019-06-27T18:09:42.058Z,94972.97
2019-06-27T18:12:11.224Z,94981.97
2019-06-27T18:14:39.863Z,94986.05
2019-06-27T18:17:09.341Z,94984.35
2019-06-27T18:19:37.998Z,94986.00
2019-06-27T18:22:06.624Z,94990.30
2019-06-27T18:24:35.272Z,94987.02
2019-06-27T18:27:03.834Z,94987.45
2019-06-27T18:29:32.990Z,94984.80
2019-06-27T18:32:01.699Z,94980.25
2019-06-27T18:34:30.262Z,94978.36
2019-06-27T18:36:59.318Z,94985.64
2019-06-27T18:39:27.961Z,94994.05
2019-06-27T18:41:56.678Z,95001.92
2019-06-27T18:44:25.416Z,95007.78
2019-06-27T18:46:54.068Z,95014.33
2019-06-27T18:49:22.949Z,95012.70
2019-06-27T18:51:51.620Z,95008.63
2019-06-27T18:54:20.306Z,95017.04
2019-06-27T18:56:49.133Z,95022.02
2019-06-27T18:59:17.905Z,95030.64
2019-06-27T19:01:46.540Z,95037.42
2019-06-27T19:04:15.357Z,95040.81
2019-06-27T19:06:44.275Z,95044.45
2019-06-27T19:09:13.030Z,95044.34
2019-06-27T19:11:41.657Z,95041.79
2019-06-27T19:14:10.298Z,95046.42
2019-06-27T19:16:38.977Z,95051.53
2019-06-27T19:19:09.251Z,95051.80
2019-06-27T19:21:42.661Z,95057.45
2019-06-27T19:24:15.927Z,95062.39
2019-06-27T19:26:45.635Z,95065.77
2019-06-27T19:29:14.266Z,95068.25
2019-06-27T19:31:42.976Z,95071.91
2019-06-27T19:34:11.612Z,95068.09
2019-06-27T19:36:40.345Z,95071.16
2019-06-27T19:39:08.991Z,95072.08
2019-06-27T19:41:37.688Z,95076.64
2019-06-27T19:44:06.512Z,95080.16
2019-06-27T19:46:35.110Z,95080.56
2019-06-27T19:49:03.850Z,95073.45
2019-06-27T19:51:34.034Z,95070.73
2019-06-27T19:54:02.606Z,95076.38
2019-06-27T19:56:31.256Z,95083.25
2019-06-27T19:59:00.675Z,95075.20
2019-06-27T20:01:29.308Z,95067.65
2019-06-27T20:03:57.966Z,95069.30
2019-06-27T20:06:26.601Z,95067.30
2019-06-27T20:08:55.233Z,95061.86
2019-06-27T20:11:23.920Z,95063.83
2019-06-27T20:13:52.559Z,95070.23
2019-06-27T20:16:22.143Z,95069.83
2019-06-27T20:18:51.090Z,95073.05
2019-06-27T20:21:19.727Z,95067.10
2019-06-27T20:23:48.374Z,95078.95
2019-06-27T20:26:17.032Z,95081.25
2019-06-27T20:28:45.654Z,95075.80
2019-06-27T20:31:15.217Z,95080.16
2019-06-27T20:33:43.796Z,95074.33
2019-06-27T20:36:12.438Z,95069.47
2019-06-27T20:38:41.143Z,95072.49
2019-06-27T20:41:09.780Z,95067.48
2019-06-27T20:43:38.409Z,95067.57
2019-06-27T20:46:07.047Z,95065.49
2019-06-27T20:48:35.683Z,95067.44
2019-06-27T20:51:04.350Z,95059.31
2019-06-27T20:53:32.986Z,95054.58
2019-06-27T20:56:01.620Z,95052.87
2019-06-27T20:58:31.963Z,95058.77
2019-06-27T21:01:00.604Z,95068.53
2019-06-27T21:03:29.257Z,95077.84
2019-06-27T21:05:57.882Z,95085.59
2019-06-27T21:08:26.446Z,95083.84
2019-06-27T21:10:55.999Z,95086.23
2019-06-27T21:13:24.643Z,95090.17
2019-06-27T21:15:53.272Z,95095.48
2019-06-27T21:18:22.037Z,95091.02
2019-06-27T21:20:50.668Z,95091.02
2019-06-27T21:23:19.305Z,95093.66
2019-06-27T21:25:47.917Z,95105.34
2019-06-27T21:28:16.551Z,95102.72
2019-06-27T21:30:46.134Z,95097.95
2019-06-27T21:33:14.850Z,95093.40
2019-06-27T21:35:43.549Z,95092.59
2019-06-27T21:38:12.160Z,95094.39
2019-06-27T21:40:40.795Z,95097.06
2019-06-27T21:43:09.443Z,95104.45
2019-06-27T21:45:38.088Z,95100.84
2019-06-27T21:48:06.737Z,95095.51
2019-06-27T21:50:36.915Z,95092.41
2019-06-27T21:53:05.550Z,95095.66
2019-06-27T21:55:34.181Z,95097.72
2019-06-27T21:58:02.871Z,95100.69
2019-06-27T22:00:33.147Z,95095.42
2019-06-27T22:03:01.807Z,95102.56
2019-06-27T22:05:30.566Z,95111.33
2019-06-27T22:07:59.205Z,95111.36
2019-06-27T22:10:27.887Z,95108.77
2019-06-27T22:12:56.582Z,95098.73
2019-06-27T22:15:25.350Z,95108.19
2019-06-27T22:17:54.301Z,95110.92
2019-06-27T22:20:23.830Z,95104.83
2019-06-27T22:22:52.477Z,95106.16
2019-06-27T22:25:21.118Z,95088.80
2019-06-27T22:27:49.749Z,95092.50
2019-06-27T22:30:19.605Z,95085.66
2019-06-27T22:32:48.255Z,95080.17
2019-06-27T22:35:17.503Z,95080.10
2019-06-27T22:38:04.280Z,95076.21
2019-06-27T22:40:50.713Z,95072.29
2019-06-27T22:43:37.334Z,95072.38
2019-06-27T22:46:24.006Z,95065.86
2019-06-27T22:48:52.886Z,95053.45
2019-06-27T22:51:40.318Z,95054.56
2019-06-27T22:54:13.249Z,95038.44
2019-06-27T22:56:41.890Z,95039.59
2019-06-27T22:59:10.542Z,95037.44
2019-06-27T23:32:20.018Z,94990.23
2019-06-27T23:34:48.648Z,94988.92
2019-06-27T23:37:17.307Z,94988.96
2019-06-27T23:39:45.993Z,94977.92
2019-06-27T23:42:14.553Z,94980.41
2019-06-27T23:44:43.187Z,94974.40
2019-06-27T23:47:11.827Z,94973.89
2019-06-27T23:49:40.533Z,94978.17
2019-06-27T23:52:09.869Z,94977.91
2019-06-27T23:54:38.440Z,94975.59
2019-06-27T23:57:07.010Z,94971.59
2019-06-27T23:59:35.692Z,94963.20
